Decoded Metar for KC62 ( in ) (IATA:) | Meteo·Mobile Aviation Weather
aviador You're here:

KC62 Decoded Metar

in
Report Time2018-10-18 16:15:00
UTC Time2018-10-18 16:28:03
Flight Rules vfr VFR
Wind230° at 04 kt
W.Rank230° ranks 5
Current wind is below 230° avg. (8.5)
Visibility9999 m
Phenomena:N/A
Clouds:N/A
Expected CloudBase > 4,400 ft AGL from Temp-Dew spread
CeilingNone
Temp08°C
Dew Point-3°C (46% RH)
AAT4.2°C
QNH1034 hPa
Raw Report
KC62 181615Z AUTO 23004KT 10SM CLR 08/M03 A3053 RMK AO2
T00871035=

Extra information for KC62:More info

Social comments